sensor_id;sensor_type;location;lat;lon;timestamp;P1;durP1;ratioP1;P2;durP2;ratioP2
34200;SDS011;20469;55.638;37.670;2022-12-18T00:01:27;13.70;;;8.88;;
34200;SDS011;20469;55.638;37.670;2022-12-18T00:03:55;11.45;;;7.88;;
34200;SDS011;20469;55.638;37.670;2022-12-18T00:06:24;13.73;;;8.63;;
34200;SDS011;20469;55.638;37.670;2022-12-18T00:08:52;13.70;;;9.07;;
34200;SDS011;20469;55.638;37.670;2022-12-18T00:11:23;13.77;;;8.75;;
34200;SDS011;20469;55.638;37.670;2022-12-18T00:13:53;14.18;;;9.40;;
34200;SDS011;20469;55.638;37.670;2022-12-18T00:16:22;15.52;;;9.05;;
34200;SDS011;20469;55.638;37.670;2022-12-18T00:18:52;12.02;;;8.35;;
34200;SDS011;20469;55.638;37.670;2022-12-18T00:21:21;14.07;;;9.35;;
34200;SDS011;20469;55.638;37.670;2022-12-18T00:23:49;12.48;;;8.27;;
34200;SDS011;20469;55.638;37.670;2022-12-18T00:26:17;12.27;;;8.00;;
34200;SDS011;20469;55.638;37.670;2022-12-18T00:28:48;12.45;;;8.55;;
34200;SDS011;20469;55.638;37.670;2022-12-18T00:31:17;15.18;;;8.65;;
34200;SDS011;20469;55.638;37.670;2022-12-18T00:33:46;14.05;;;8.95;;
34200;SDS011;20469;55.638;37.670;2022-12-18T00:36:20;13.85;;;8.48;;
34200;SDS011;20469;55.638;37.670;2022-12-18T00:38:50;13.55;;;9.13;;
34200;SDS011;20469;55.638;37.670;2022-12-18T00:41:18;12.57;;;8.43;;
34200;SDS011;20469;55.638;37.670;2022-12-18T00:44:04;12.15;;;7.50;;
34200;SDS011;20469;55.638;37.670;2022-12-18T00:46:33;12.38;;;8.32;;
34200;SDS011;20469;55.638;37.670;2022-12-18T00:49:00;9.50;;;5.90;;
34200;SDS011;20469;55.638;37.670;2022-12-18T00:51:27;13.30;;;7.75;;
34200;SDS011;20469;55.638;37.670;2022-12-18T00:53:55;11.27;;;7.50;;
34200;SDS011;20469;55.638;37.670;2022-12-18T00:56:22;12.90;;;7.80;;
34200;SDS011;20469;55.638;37.670;2022-12-18T00:58:50;12.07;;;8.00;;
34200;SDS011;20469;55.638;37.670;2022-12-18T01:01:17;12.32;;;6.30;;
34200;SDS011;20469;55.638;37.670;2022-12-18T01:03:44;9.27;;;6.20;;
34200;SDS011;20469;55.638;37.670;2022-12-18T01:06:13;11.15;;;7.47;;
34200;SDS011;20469;55.638;37.670;2022-12-18T01:08:41;13.23;;;7.80;;
34200;SDS011;20469;55.638;37.670;2022-12-18T01:11:14;12.38;;;8.20;;
34200;SDS011;20469;55.638;37.670;2022-12-18T01:13:44;12.15;;;7.07;;
34200;SDS011;20469;55.638;37.670;2022-12-18T01:16:12;11.30;;;7.38;;
34200;SDS011;20469;55.638;37.670;2022-12-18T01:18:40;11.10;;;6.97;;
34200;SDS011;20469;55.638;37.670;2022-12-18T01:21:08;12.88;;;8.13;;
34200;SDS011;20469;55.638;37.670;2022-12-18T01:23:36;11.95;;;6.95;;
34200;SDS011;20469;55.638;37.670;2022-12-18T01:26:08;11.32;;;6.88;;
34200;SDS011;20469;55.638;37.670;2022-12-18T01:28:42;12.27;;;8.63;;
34200;SDS011;20469;55.638;37.670;2022-12-18T01:31:20;10.65;;;7.45;;
34200;SDS011;20469;55.638;37.670;2022-12-18T01:33:52;11.90;;;7.68;;
34200;SDS011;20469;55.638;37.670;2022-12-18T01:38:51;11.52;;;7.50;;
34200;SDS011;20469;55.638;37.670;2022-12-18T01:41:21;11.80;;;7.53;;
34200;SDS011;20469;55.638;37.670;2022-12-18T01:43:54;11.38;;;7.85;;
34200;SDS011;20469;55.638;37.670;2022-12-18T01:46:26;12.38;;;7.78;;
34200;SDS011;20469;55.638;37.670;2022-12-18T01:48:55;12.75;;;7.53;;
34200;SDS011;20469;55.638;37.670;2022-12-18T01:51:24;11.95;;;7.68;;
34200;SDS011;20469;55.638;37.670;2022-12-18T01:53:53;10.15;;;7.20;;
34200;SDS011;20469;55.638;37.670;2022-12-18T01:56:20;11.85;;;7.07;;
34200;SDS011;20469;55.638;37.670;2022-12-18T02:01:20;11.38;;;7.40;;
34200;SDS011;20469;55.638;37.670;2022-12-18T02:03:49;11.63;;;7.45;;
34200;SDS011;20469;55.638;37.670;2022-12-18T02:06:39;8.57;;;5.55;;
34200;SDS011;20469;55.638;37.670;2022-12-18T02:09:11;12.18;;;6.65;;
34200;SDS011;20469;55.638;37.670;2022-12-18T02:11:52;8.77;;;4.60;;
34200;SDS011;20469;55.638;37.670;2022-12-18T02:19:58;11.20;;;7.30;;
34200;SDS011;20469;55.638;37.670;2022-12-18T02:28:25;9.75;;;6.60;;
34200;SDS011;20469;55.638;37.670;2022-12-18T02:30:57;11.43;;;7.93;;
34200;SDS011;20469;55.638;37.670;2022-12-18T02:33:29;11.52;;;7.25;;
34200;SDS011;20469;55.638;37.670;2022-12-18T02:35:59;10.68;;;6.97;;
34200;SDS011;20469;55.638;37.670;2022-12-18T02:38:28;11.15;;;7.38;;
34200;SDS011;20469;55.638;37.670;2022-12-18T02:40:56;12.70;;;7.18;;
34200;SDS011;20469;55.638;37.670;2022-12-18T02:43:24;9.18;;;6.35;;
34200;SDS011;20469;55.638;37.670;2022-12-18T02:45:53;8.38;;;5.57;;
34200;SDS011;20469;55.638;37.670;2022-12-18T02:48:24;10.15;;;6.65;;
34200;SDS011;20469;55.638;37.670;2022-12-18T02:51:11;8.70;;;6.20;;
34200;SDS011;20469;55.638;37.670;2022-12-18T02:56:56;12.63;;;6.93;;
34200;SDS011;20469;55.638;37.670;2022-12-18T02:59:34;9.88;;;6.47;;
34200;SDS011;20469;55.638;37.670;2022-12-18T03:04:57;9.02;;;6.32;;
34200;SDS011;20469;55.638;37.670;2022-12-18T03:07:46;11.40;;;7.05;;
34200;SDS011;20469;55.638;37.670;2022-12-18T03:10:21;9.85;;;6.68;;
34200;SDS011;20469;55.638;37.670;2022-12-18T03:13:00;10.77;;;6.50;;
34200;SDS011;20469;55.638;37.670;2022-12-18T03:15:37;10.85;;;7.25;;
34200;SDS011;20469;55.638;37.670;2022-12-18T03:18:10;10.57;;;6.75;;
34200;SDS011;20469;55.638;37.670;2022-12-18T03:20:43;10.13;;;6.68;;
34200;SDS011;20469;55.638;37.670;2022-12-18T03:23:16;11.20;;;6.55;;
34200;SDS011;20469;55.638;37.670;2022-12-18T03:25:52;10.13;;;6.32;;
34200;SDS011;20469;55.638;37.670;2022-12-18T03:28:30;12.18;;;6.70;;
34200;SDS011;20469;55.638;37.670;2022-12-18T03:31:02;10.23;;;6.75;;
34200;SDS011;20469;55.638;37.670;2022-12-18T03:33:37;10.75;;;7.05;;
34200;SDS011;20469;55.638;37.670;2022-12-18T03:36:12;11.02;;;6.50;;
34200;SDS011;20469;55.638;37.670;2022-12-18T03:38:40;9.88;;;5.65;;
34200;SDS011;20469;55.638;37.670;2022-12-18T03:49:34;10.23;;;6.47;;
34200;SDS011;20469;55.638;37.670;2022-12-18T03:52:11;9.98;;;6.45;;
34200;SDS011;20469;55.638;37.670;2022-12-18T03:54:44;10.65;;;6.05;;
34200;SDS011;20469;55.638;37.670;2022-12-18T03:57:17;10.38;;;6.13;;
34200;SDS011;20469;55.638;37.670;2022-12-18T03:59:47;10.70;;;6.80;;
34200;SDS011;20469;55.638;37.670;2022-12-18T04:02:19;9.27;;;6.03;;
34200;SDS011;20469;55.638;37.670;2022-12-18T04:04:49;8.70;;;6.45;;
34200;SDS011;20469;55.638;37.670;2022-12-18T04:07:24;11.35;;;6.97;;
34200;SDS011;20469;55.638;37.670;2022-12-18T04:09:52;9.85;;;6.22;;
34200;SDS011;20469;55.638;37.670;2022-12-18T04:12:26;11.88;;;6.68;;
34200;SDS011;20469;55.638;37.670;2022-12-18T04:17:22;9.95;;;6.55;;
34200;SDS011;20469;55.638;37.670;2022-12-18T04:19:50;10.82;;;5.80;;
34200;SDS011;20469;55.638;37.670;2022-12-18T04:22:17;7.85;;;5.70;;
34200;SDS011;20469;55.638;37.670;2022-12-18T04:24:45;7.97;;;5.22;;
34200;SDS011;20469;55.638;37.670;2022-12-18T04:27:12;11.70;;;6.25;;
34200;SDS011;20469;55.638;37.670;2022-12-18T04:29:40;10.43;;;6.63;;
34200;SDS011;20469;55.638;37.670;2022-12-18T04:32:07;9.63;;;6.03;;
34200;SDS011;20469;55.638;37.670;2022-12-18T04:34:35;8.88;;;6.20;;
34200;SDS011;20469;55.638;37.670;2022-12-18T04:37:03;9.82;;;6.13;;
34200;SDS011;20469;55.638;37.670;2022-12-18T04:39:30;8.85;;;5.90;;
34200;SDS011;20469;55.638;37.670;2022-12-18T04:41:58;9.02;;;6.00;;
34200;SDS011;20469;55.638;37.670;2022-12-18T04:44:26;5.65;;;3.85;;
34200;SDS011;20469;55.638;37.670;2022-12-18T04:46:55;9.30;;;5.57;;
34200;SDS011;20469;55.638;37.670;2022-12-18T04:49:22;8.27;;;5.60;;
34200;SDS011;20469;55.638;37.670;2022-12-18T04:51:49;8.23;;;5.45;;
34200;SDS011;20469;55.638;37.670;2022-12-18T04:54:16;5.05;;;3.88;;
34200;SDS011;20469;55.638;37.670;2022-12-18T04:56:46;7.78;;;5.10;;
34200;SDS011;20469;55.638;37.670;2022-12-18T04:59:13;9.35;;;5.53;;
34200;SDS011;20469;55.638;37.670;2022-12-18T05:01:40;9.35;;;6.30;;
34200;SDS011;20469;55.638;37.670;2022-12-18T05:04:08;7.70;;;4.97;;
34200;SDS011;20469;55.638;37.670;2022-12-18T05:06:35;7.80;;;5.70;;
34200;SDS011;20469;55.638;37.670;2022-12-18T05:09:02;8.88;;;5.65;;
34200;SDS011;20469;55.638;37.670;2022-12-18T05:11:31;8.38;;;6.05;;
34200;SDS011;20469;55.638;37.670;2022-12-18T05:13:59;8.32;;;6.03;;
34200;SDS011;20469;55.638;37.670;2022-12-18T05:16:26;8.38;;;5.60;;
34200;SDS011;20469;55.638;37.670;2022-12-18T05:18:53;9.68;;;6.47;;
34200;SDS011;20469;55.638;37.670;2022-12-18T05:21:21;8.27;;;5.80;;
34200;SDS011;20469;55.638;37.670;2022-12-18T05:23:48;10.05;;;6.30;;
34200;SDS011;20469;55.638;37.670;2022-12-18T05:26:16;7.40;;;5.63;;
34200;SDS011;20469;55.638;37.670;2022-12-18T05:28:44;11.03;;;6.20;;
34200;SDS011;20469;55.638;37.670;2022-12-18T05:31:12;8.02;;;5.53;;
34200;SDS011;20469;55.638;37.670;2022-12-18T05:33:40;7.53;;;5.10;;
34200;SDS011;20469;55.638;37.670;2022-12-18T05:36:08;9.30;;;5.80;;
34200;SDS011;20469;55.638;37.670;2022-12-18T05:38:36;9.20;;;6.00;;
34200;SDS011;20469;55.638;37.670;2022-12-18T05:41:04;8.05;;;5.43;;
34200;SDS011;20469;55.638;37.670;2022-12-18T05:43:34;8.60;;;5.30;;
34200;SDS011;20469;55.638;37.670;2022-12-18T05:46:04;7.75;;;5.07;;
34200;SDS011;20469;55.638;37.670;2022-12-18T05:48:37;7.78;;;5.13;;
34200;SDS011;20469;55.638;37.670;2022-12-18T05:51:09;8.88;;;5.60;;
34200;SDS011;20469;55.638;37.670;2022-12-18T05:53:39;10.00;;;5.28;;
34200;SDS011;20469;55.638;37.670;2022-12-18T05:56:08;8.15;;;5.13;;
34200;SDS011;20469;55.638;37.670;2022-12-18T05:58:43;7.80;;;5.03;;
34200;SDS011;20469;55.638;37.670;2022-12-18T06:01:13;7.10;;;5.47;;
34200;SDS011;20469;55.638;37.670;2022-12-18T06:03:42;8.63;;;5.53;;
34200;SDS011;20469;55.638;37.670;2022-12-18T06:06:18;8.50;;;5.82;;
34200;SDS011;20469;55.638;37.670;2022-12-18T06:08:55;9.57;;;5.93;;
34200;SDS011;20469;55.638;37.670;2022-12-18T06:11:23;8.20;;;5.53;;
34200;SDS011;20469;55.638;37.670;2022-12-18T06:13:52;8.45;;;5.28;;
34200;SDS011;20469;55.638;37.670;2022-12-18T06:16:24;9.85;;;6.20;;
34200;SDS011;20469;55.638;37.670;2022-12-18T06:18:52;9.00;;;5.50;;
34200;SDS011;20469;55.638;37.670;2022-12-18T06:21:22;8.10;;;5.20;;
34200;SDS011;20469;55.638;37.670;2022-12-18T06:23:49;5.80;;;3.83;;
34200;SDS011;20469;55.638;37.670;2022-12-18T06:26:16;8.10;;;5.57;;
34200;SDS011;20469;55.638;37.670;2022-12-18T06:31:37;10.05;;;5.38;;
34200;SDS011;20469;55.638;37.670;2022-12-18T06:34:05;9.23;;;5.90;;
34200;SDS011;20469;55.638;37.670;2022-12-18T06:36:32;9.90;;;5.75;;
34200;SDS011;20469;55.638;37.670;2022-12-18T06:38:59;7.90;;;5.40;;
34200;SDS011;20469;55.638;37.670;2022-12-18T06:41:26;8.45;;;5.68;;
34200;SDS011;20469;55.638;37.670;2022-12-18T06:43:53;9.20;;;5.93;;
34200;SDS011;20469;55.638;37.670;2022-12-18T06:46:25;8.65;;;5.68;;
34200;SDS011;20469;55.638;37.670;2022-12-18T06:48:52;13.73;;;6.20;;
34200;SDS011;20469;55.638;37.670;2022-12-18T06:51:21;10.88;;;5.95;;
34200;SDS011;20469;55.638;37.670;2022-12-18T06:53:50;7.10;;;5.35;;
34200;SDS011;20469;55.638;37.670;2022-12-18T06:56:17;9.55;;;5.60;;
34200;SDS011;20469;55.638;37.670;2022-12-18T06:58:44;9.27;;;5.13;;
34200;SDS011;20469;55.638;37.670;2022-12-18T07:01:12;7.80;;;5.25;;
34200;SDS011;20469;55.638;37.670;2022-12-18T07:03:40;9.65;;;5.18;;
34200;SDS011;20469;55.638;37.670;2022-12-18T07:06:16;9.50;;;5.20;;
34200;SDS011;20469;55.638;37.670;2022-12-18T07:08:45;8.25;;;5.60;;
34200;SDS011;20469;55.638;37.670;2022-12-18T07:11:13;8.77;;;5.32;;
34200;SDS011;20469;55.638;37.670;2022-12-18T07:13:41;7.55;;;5.13;;
34200;SDS011;20469;55.638;37.670;2022-12-18T07:16:16;7.32;;;5.40;;
34200;SDS011;20469;55.638;37.670;2022-12-18T07:18:50;7.25;;;4.70;;
34200;SDS011;20469;55.638;37.670;2022-12-18T07:21:20;8.15;;;5.30;;
34200;SDS011;20469;55.638;37.670;2022-12-18T07:24:07;9.40;;;5.63;;
34200;SDS011;20469;55.638;37.670;2022-12-18T07:26:34;8.57;;;5.47;;
34200;SDS011;20469;55.638;37.670;2022-12-18T07:29:01;7.25;;;4.78;;
34200;SDS011;20469;55.638;37.670;2022-12-18T07:31:28;6.30;;;4.88;;
34200;SDS011;20469;55.638;37.670;2022-12-18T07:33:56;8.93;;;6.03;;
34200;SDS011;20469;55.638;37.670;2022-12-18T07:36:23;9.27;;;5.40;;
34200;SDS011;20469;55.638;37.670;2022-12-18T07:38:51;7.25;;;4.75;;
34200;SDS011;20469;55.638;37.670;2022-12-18T07:41:19;8.30;;;5.32;;
34200;SDS011;20469;55.638;37.670;2022-12-18T07:43:47;8.50;;;5.80;;
34200;SDS011;20469;55.638;37.670;2022-12-18T07:46:15;9.68;;;5.90;;
34200;SDS011;20469;55.638;37.670;2022-12-18T07:48:43;7.18;;;5.13;;
34200;SDS011;20469;55.638;37.670;2022-12-18T07:51:15;8.23;;;5.18;;
34200;SDS011;20469;55.638;37.670;2022-12-18T07:53:44;9.40;;;5.03;;
34200;SDS011;20469;55.638;37.670;2022-12-18T07:56:17;9.00;;;5.50;;
34200;SDS011;20469;55.638;37.670;2022-12-18T07:58:55;10.15;;;5.40;;
34200;SDS011;20469;55.638;37.670;2022-12-18T08:01:22;7.40;;;4.85;;
34200;SDS011;20469;55.638;37.670;2022-12-18T08:03:50;9.80;;;5.53;;
34200;SDS011;20469;55.638;37.670;2022-12-18T08:06:18;7.30;;;4.85;;
34200;SDS011;20469;55.638;37.670;2022-12-18T08:08:50;9.90;;;5.72;;
34200;SDS011;20469;55.638;37.670;2022-12-18T08:11:21;9.85;;;5.38;;
34200;SDS011;20469;55.638;37.670;2022-12-18T08:13:49;8.57;;;5.07;;
34200;SDS011;20469;55.638;37.670;2022-12-18T08:16:16;7.38;;;5.10;;
34200;SDS011;20469;55.638;37.670;2022-12-18T08:18:44;7.32;;;5.22;;
34200;SDS011;20469;55.638;37.670;2022-12-18T08:21:12;7.95;;;4.80;;
34200;SDS011;20469;55.638;37.670;2022-12-18T08:23:41;11.10;;;5.65;;
34200;SDS011;20469;55.638;37.670;2022-12-18T08:26:13;6.90;;;4.82;;
34200;SDS011;20469;55.638;37.670;2022-12-18T08:28:41;7.90;;;5.83;;
34200;SDS011;20469;55.638;37.670;2022-12-18T08:31:09;8.50;;;5.80;;
34200;SDS011;20469;55.638;37.670;2022-12-18T08:33:37;9.27;;;5.75;;
34200;SDS011;20469;55.638;37.670;2022-12-18T08:36:07;8.45;;;5.70;;
34200;SDS011;20469;55.638;37.670;2022-12-18T08:38:35;7.40;;;5.43;;
34200;SDS011;20469;55.638;37.670;2022-12-18T08:41:04;6.38;;;4.80;;
34200;SDS011;20469;55.638;37.670;2022-12-18T08:43:33;7.60;;;4.45;;
34200;SDS011;20469;55.638;37.670;2022-12-18T08:46:20;8.88;;;5.35;;
34200;SDS011;20469;55.638;37.670;2022-12-18T08:48:50;9.63;;;5.40;;
34200;SDS011;20469;55.638;37.670;2022-12-18T08:51:18;7.55;;;5.10;;
34200;SDS011;20469;55.638;37.670;2022-12-18T08:53:46;8.75;;;5.30;;
34200;SDS011;20469;55.638;37.670;2022-12-18T08:56:14;8.35;;;5.43;;
34200;SDS011;20469;55.638;37.670;2022-12-18T08:58:41;8.40;;;5.57;;
34200;SDS011;20469;55.638;37.670;2022-12-18T09:01:09;9.20;;;5.57;;
34200;SDS011;20469;55.638;37.670;2022-12-18T09:03:38;7.72;;;5.25;;
34200;SDS011;20469;55.638;37.670;2022-12-18T09:06:06;9.50;;;5.50;;
34200;SDS011;20469;55.638;37.670;2022-12-18T09:08:34;9.05;;;5.40;;
34200;SDS011;20469;55.638;37.670;2022-12-18T09:11:03;8.63;;;5.20;;
34200;SDS011;20469;55.638;37.670;2022-12-18T09:13:30;8.43;;;5.90;;
34200;SDS011;20469;55.638;37.670;2022-12-18T09:15:58;14.18;;;6.75;;
34200;SDS011;20469;55.638;37.670;2022-12-18T09:18:25;7.72;;;5.07;;
34200;SDS011;20469;55.638;37.670;2022-12-18T09:20:52;7.85;;;4.90;;
34200;SDS011;20469;55.638;37.670;2022-12-18T09:23:20;8.63;;;5.28;;
34200;SDS011;20469;55.638;37.670;2022-12-18T09:25:48;6.35;;;4.60;;
34200;SDS011;20469;55.638;37.670;2022-12-18T09:28:16;8.00;;;5.18;;
34200;SDS011;20469;55.638;37.670;2022-12-18T09:30:46;10.07;;;5.80;;
34200;SDS011;20469;55.638;37.670;2022-12-18T09:33:14;8.25;;;4.80;;
34200;SDS011;20469;55.638;37.670;2022-12-18T09:35:43;8.75;;;5.43;;
34200;SDS011;20469;55.638;37.670;2022-12-18T09:38:12;7.68;;;4.88;;
34200;SDS011;20469;55.638;37.670;2022-12-18T09:40:45;7.15;;;5.13;;
34200;SDS011;20469;55.638;37.670;2022-12-18T09:43:21;8.20;;;5.22;;
34200;SDS011;20469;55.638;37.670;2022-12-18T09:46:15;7.55;;;4.93;;
34200;SDS011;20469;55.638;37.670;2022-12-18T09:48:49;8.55;;;5.10;;
34200;SDS011;20469;55.638;37.670;2022-12-18T09:51:19;6.78;;;4.68;;
34200;SDS011;20469;55.638;37.670;2022-12-18T09:53:55;7.07;;;4.50;;
34200;SDS011;20469;55.638;37.670;2022-12-18T09:56:28;7.03;;;4.80;;
34200;SDS011;20469;55.638;37.670;2022-12-18T09:58:59;7.57;;;4.53;;
34200;SDS011;20469;55.638;37.670;2022-12-18T10:01:28;7.80;;;4.90;;
34200;SDS011;20469;55.638;37.670;2022-12-18T10:04:09;6.90;;;4.50;;
34200;SDS011;20469;55.638;37.670;2022-12-18T10:06:49;6.97;;;4.50;;
34200;SDS011;20469;55.638;37.670;2022-12-18T10:09:42;7.13;;;4.75;;
34200;SDS011;20469;55.638;37.670;2022-12-18T10:12:27;8.93;;;4.78;;
34200;SDS011;20469;55.638;37.670;2022-12-18T10:17:49;6.45;;;4.45;;
34200;SDS011;20469;55.638;37.670;2022-12-18T10:23:22;7.00;;;4.28;;
34200;SDS011;20469;55.638;37.670;2022-12-18T10:28:22;6.50;;;4.47;;
34200;SDS011;20469;55.638;37.670;2022-12-18T10:30:51;10.13;;;4.43;;
34200;SDS011;20469;55.638;37.670;2022-12-18T10:33:20;7.32;;;4.55;;
34200;SDS011;20469;55.638;37.670;2022-12-18T10:35:52;7.43;;;4.35;;
34200;SDS011;20469;55.638;37.670;2022-12-18T10:38:21;6.55;;;4.03;;
34200;SDS011;20469;55.638;37.670;2022-12-18T10:51:24;7.53;;;4.57;;
34200;SDS011;20469;55.638;37.670;2022-12-18T10:56:40;6.72;;;4.40;;
34200;SDS011;20469;55.638;37.670;2022-12-18T10:59:10;6.35;;;4.63;;
34200;SDS011;20469;55.638;37.670;2022-12-18T11:04:24;8.05;;;4.78;;
34200;SDS011;20469;55.638;37.670;2022-12-18T11:07:02;7.15;;;4.25;;
34200;SDS011;20469;55.638;37.670;2022-12-18T11:09:34;6.53;;;4.70;;
34200;SDS011;20469;55.638;37.670;2022-12-18T11:12:18;6.80;;;4.72;;
34200;SDS011;20469;55.638;37.670;2022-12-18T11:17:21;6.70;;;3.95;;
34200;SDS011;20469;55.638;37.670;2022-12-18T11:19:59;8.15;;;3.80;;
34200;SDS011;20469;55.638;37.670;2022-12-18T11:22:33;8.07;;;4.93;;
34200;SDS011;20469;55.638;37.670;2022-12-18T11:25:06;7.90;;;4.53;;
34200;SDS011;20469;55.638;37.670;2022-12-18T11:28:00;7.97;;;4.55;;
34200;SDS011;20469;55.638;37.670;2022-12-18T11:30:33;7.68;;;4.72;;
34200;SDS011;20469;55.638;37.670;2022-12-18T11:38:24;9.75;;;4.40;;
34200;SDS011;20469;55.638;37.670;2022-12-18T11:43:28;8.57;;;4.80;;
34200;SDS011;20469;55.638;37.670;2022-12-18T11:46:16;7.13;;;4.57;;
34200;SDS011;20469;55.638;37.670;2022-12-18T11:49:25;6.88;;;4.68;;
34200;SDS011;20469;55.638;37.670;2022-12-18T11:56:26;6.97;;;4.93;;
34200;SDS011;20469;55.638;37.670;2022-12-18T11:58:14;9.15;;;5.05;;
34200;SDS011;20469;55.638;37.670;2022-12-18T12:09:14;8.52;;;4.95;;
34200;SDS011;20469;55.638;37.670;2022-12-18T12:11:59;8.05;;;4.90;;
34200;SDS011;20469;55.638;37.670;2022-12-18T12:17:48;6.60;;;4.30;;
34200;SDS011;20469;55.638;37.670;2022-12-18T12:39:15;8.70;;;4.63;;
34200;SDS011;20469;55.638;37.670;2022-12-18T12:44:38;10.40;;;3.70;;
34200;SDS011;20469;55.638;37.670;2022-12-18T12:47:31;5.25;;;3.28;;
34200;SDS011;20469;55.638;37.670;2022-12-18T12:50:04;5.60;;;3.30;;
34200;SDS011;20469;55.638;37.670;2022-12-18T12:52:43;7.07;;;4.38;;
34200;SDS011;20469;55.638;37.670;2022-12-18T12:55:26;5.85;;;3.58;;
34200;SDS011;20469;55.638;37.670;2022-12-18T12:58:38;6.18;;;3.67;;
34200;SDS011;20469;55.638;37.670;2022-12-18T13:00:53;5.15;;;3.78;;
34200;SDS011;20469;55.638;37.670;2022-12-18T13:06:30;6.25;;;3.28;;
34200;SDS011;20469;55.638;37.670;2022-12-18T13:09:09;6.65;;;3.95;;
34200;SDS011;20469;55.638;37.670;2022-12-18T13:14:27;6.00;;;3.80;;
34200;SDS011;20469;55.638;37.670;2022-12-18T13:22:36;9.82;;;3.50;;
34200;SDS011;20469;55.638;37.670;2022-12-18T13:28:10;6.03;;;3.90;;
34200;SDS011;20469;55.638;37.670;2022-12-18T13:30:42;7.03;;;3.63;;
34200;SDS011;20469;55.638;37.670;2022-12-18T13:36:15;6.43;;;3.67;;
34200;SDS011;20469;55.638;37.670;2022-12-18T13:39:08;7.45;;;4.15;;
34200;SDS011;20469;55.638;37.670;2022-12-18T13:44:35;8.93;;;4.72;;
34200;SDS011;20469;55.638;37.670;2022-12-18T13:50:00;9.18;;;4.75;;
34200;SDS011;20469;55.638;37.670;2022-12-18T13:52:47;11.68;;;5.43;;
34200;SDS011;20469;55.638;37.670;2022-12-18T13:55:16;10.45;;;5.35;;
34200;SDS011;20469;55.638;37.670;2022-12-18T13:57:46;11.70;;;6.28;;
34200;SDS011;20469;55.638;37.670;2022-12-18T14:00:27;12.77;;;6.72;;
34200;SDS011;20469;55.638;37.670;2022-12-18T14:02:56;14.88;;;6.63;;
34200;SDS011;20469;55.638;37.670;2022-12-18T14:05:26;13.70;;;7.15;;
34200;SDS011;20469;55.638;37.670;2022-12-18T14:07:54;18.42;;;9.40;;
34200;SDS011;20469;55.638;37.670;2022-12-18T14:10:22;16.17;;;8.40;;
34200;SDS011;20469;55.638;37.670;2022-12-18T14:13:10;19.45;;;8.40;;
34200;SDS011;20469;55.638;37.670;2022-12-18T14:21:31;17.73;;;8.55;;
34200;SDS011;20469;55.638;37.670;2022-12-18T14:24:05;15.25;;;7.80;;
34200;SDS011;20469;55.638;37.670;2022-12-18T14:26:45;17.73;;;8.38;;
34200;SDS011;20469;55.638;37.670;2022-12-18T14:29:20;15.82;;;8.15;;
34200;SDS011;20469;55.638;37.670;2022-12-18T14:32:07;17.58;;;8.45;;
34200;SDS011;20469;55.638;37.670;2022-12-18T14:34:45;16.50;;;8.23;;
34200;SDS011;20469;55.638;37.670;2022-12-18T14:37:14;13.55;;;7.53;;
34200;SDS011;20469;55.638;37.670;2022-12-18T14:39:53;16.13;;;8.55;;
34200;SDS011;20469;55.638;37.670;2022-12-18T14:42:21;15.45;;;7.75;;
34200;SDS011;20469;55.638;37.670;2022-12-18T14:44:48;16.98;;;7.55;;
34200;SDS011;20469;55.638;37.670;2022-12-18T14:47:35;13.75;;;7.25;;
34200;SDS011;20469;55.638;37.670;2022-12-18T14:50:03;16.15;;;7.57;;
34200;SDS011;20469;55.638;37.670;2022-12-18T14:52:38;17.65;;;8.05;;
34200;SDS011;20469;55.638;37.670;2022-12-18T14:55:13;16.00;;;7.60;;
34200;SDS011;20469;55.638;37.670;2022-12-18T14:57:42;12.68;;;7.38;;
34200;SDS011;20469;55.638;37.670;2022-12-18T15:00:15;15.77;;;7.88;;
34200;SDS011;20469;55.638;37.670;2022-12-18T15:02:54;10.05;;;6.22;;
34200;SDS011;20469;55.638;37.670;2022-12-18T15:05:29;11.57;;;6.15;;
34200;SDS011;20469;55.638;37.670;2022-12-18T15:07:58;10.05;;;5.80;;
34200;SDS011;20469;55.638;37.670;2022-12-18T15:10:32;10.43;;;5.63;;
34200;SDS011;20469;55.638;37.670;2022-12-18T15:18:04;8.55;;;5.18;;
34200;SDS011;20469;55.638;37.670;2022-12-18T15:20:45;7.68;;;4.72;;
34200;SDS011;20469;55.638;37.670;2022-12-18T15:23:59;7.25;;;4.50;;
34200;SDS011;20469;55.638;37.670;2022-12-18T15:26:20;7.03;;;4.72;;
34200;SDS011;20469;55.638;37.670;2022-12-18T15:28:49;7.97;;;4.60;;
34200;SDS011;20469;55.638;37.670;2022-12-18T15:36:20;8.05;;;4.53;;
34200;SDS011;20469;55.638;37.670;2022-12-18T15:38:53;7.50;;;4.82;;
34200;SDS011;20469;55.638;37.670;2022-12-18T15:41:31;7.65;;;4.72;;
34200;SDS011;20469;55.638;37.670;2022-12-18T15:44:01;7.05;;;4.80;;
34200;SDS011;20469;55.638;37.670;2022-12-18T15:46:30;8.52;;;4.40;;
34200;SDS011;20469;55.638;37.670;2022-12-18T15:48:57;7.53;;;4.88;;
34200;SDS011;20469;55.638;37.670;2022-12-18T15:51:32;5.72;;;3.90;;
34200;SDS011;20469;55.638;37.670;2022-12-18T15:54:02;7.15;;;4.28;;
34200;SDS011;20469;55.638;37.670;2022-12-18T15:56:32;6.95;;;4.30;;
34200;SDS011;20469;55.638;37.670;2022-12-18T15:59:19;8.13;;;5.10;;
34200;SDS011;20469;55.638;37.670;2022-12-18T16:01:48;7.40;;;4.85;;
34200;SDS011;20469;55.638;37.670;2022-12-18T16:04:18;7.13;;;4.53;;
34200;SDS011;20469;55.638;37.670;2022-12-18T16:09:38;7.13;;;4.57;;
34200;SDS011;20469;55.638;37.670;2022-12-18T16:12:06;7.90;;;5.05;;
34200;SDS011;20469;55.638;37.670;2022-12-18T16:14:40;7.82;;;4.68;;
34200;SDS011;20469;55.638;37.670;2022-12-18T16:17:09;8.77;;;5.35;;
34200;SDS011;20469;55.638;37.670;2022-12-18T16:19:37;8.73;;;5.15;;
34200;SDS011;20469;55.638;37.670;2022-12-18T16:22:05;7.35;;;4.90;;
34200;SDS011;20469;55.638;37.670;2022-12-18T16:24:35;8.93;;;5.15;;
34200;SDS011;20469;55.638;37.670;2022-12-18T16:27:04;9.20;;;5.75;;
34200;SDS011;20469;55.638;37.670;2022-12-18T16:29:31;9.75;;;5.60;;
34200;SDS011;20469;55.638;37.670;2022-12-18T16:31:59;9.07;;;4.65;;
34200;SDS011;20469;55.638;37.670;2022-12-18T16:34:27;7.45;;;5.28;;
34200;SDS011;20469;55.638;37.670;2022-12-18T16:37:02;6.90;;;4.25;;
34200;SDS011;20469;55.638;37.670;2022-12-18T16:39:35;7.72;;;4.75;;
34200;SDS011;20469;55.638;37.670;2022-12-18T16:42:04;7.68;;;4.47;;
34200;SDS011;20469;55.638;37.670;2022-12-18T16:44:33;7.88;;;4.93;;
34200;SDS011;20469;55.638;37.670;2022-12-18T16:47:01;6.28;;;4.35;;
34200;SDS011;20469;55.638;37.670;2022-12-18T16:49:29;6.68;;;4.50;;
34200;SDS011;20469;55.638;37.670;2022-12-18T16:51:56;6.68;;;4.63;;
34200;SDS011;20469;55.638;37.670;2022-12-18T16:54:28;7.72;;;4.30;;
34200;SDS011;20469;55.638;37.670;2022-12-18T16:56:56;8.00;;;5.20;;
34200;SDS011;20469;55.638;37.670;2022-12-18T16:59:23;6.90;;;5.05;;
34200;SDS011;20469;55.638;37.670;2022-12-18T17:01:52;10.13;;;5.50;;
34200;SDS011;20469;55.638;37.670;2022-12-18T17:04:21;8.60;;;5.57;;
34200;SDS011;20469;55.638;37.670;2022-12-18T17:06:48;11.32;;;6.30;;
34200;SDS011;20469;55.638;37.670;2022-12-18T17:09:17;9.30;;;5.43;;
34200;SDS011;20469;55.638;37.670;2022-12-18T17:11:52;9.43;;;5.93;;
34200;SDS011;20469;55.638;37.670;2022-12-18T17:14:20;8.80;;;6.27;;
34200;SDS011;20469;55.638;37.670;2022-12-18T17:16:49;8.63;;;6.10;;
34200;SDS011;20469;55.638;37.670;2022-12-18T17:19:37;11.20;;;6.23;;
34200;SDS011;20469;55.638;37.670;2022-12-18T17:22:04;11.02;;;6.30;;
34200;SDS011;20469;55.638;37.670;2022-12-18T17:24:33;8.43;;;5.57;;
34200;SDS011;20469;55.638;37.670;2022-12-18T17:27:02;8.17;;;5.50;;